Airfield :
LOGIN :

Register | Disclaimer

   EN    FR    IT 

 










Legend :    VFR   Marginal VFR   IFR   Intensive IFR   Very Intensive IFR
Visi :
Ceiling :
>= 8 km
>= 3000ft
5 to 8 km
1000 to 3000 ft
1500m to 5 km
500 to 1000 ft
800 to 1500m
200 to 500 ft
< 800m
< 200 ft
Symbols :   Thunderstorms  Fog  Heavy snow  Heavy precipitations  Wind > 20 kt
SIGMETs :     Misc.  Thunderstorms  Icing  Turbulence  Mountain Waves  Volcanic Ashes







- Airport Elevation : 297 ft
- IATA code : ODB


LEBA - Córdoba

CURRENT METAR :
  • 200030Z AUTO VRB01KT 9999 NCD 11/11 Q1014

EXPIRED METARs :
  • 200000Z AUTO 00000KT 9999 NCD 12/11 Q1014
  • 192330Z AUTO 00000KT 9999 NCD 12/11 Q1014
  • 192300Z AUTO 00000KT 9999 NCD 12/11 Q1014
  • 192230Z AUTO VRB01KT 9999 NCD 12/11 Q1014
  • 192200Z AUTO 22003KT 170V250 9999 NCD 12/11 Q1014
  • 192130Z AUTO 18002KT 9999 NCD 13/11 Q1014

TAF TAF LEBA
Valid from the 19 at 18:00 until the 20 at 03:00 UTC


191700Z 1918/2003 VRB02KT 9999 FEW030
No reported NOTAMs for that airfield.



MET'MAP, your aeronautical weather chart ! - Copyright ORBIFLY December 2007 - Disclaimer

ORBIFLY MET'MAP TEAM :

Programming & Development : Alexandra Zaïnal
Concept & Development : Baudouin d'Aumeries
Co-Development & Prog : Marc-Olivier Méhu
Technical & hardware support : Manuel Goepfert

Contact : metmap@orbifly.com




SOURCES & CREDITS :

   NOAA